WMKM/MKZ METAR and TAF weather

Enter ICAO airport designator
Station Type Date Time Source
WMKM METAR 2019/02/20 07:00 UTC NOAA

WMKM 200700Z VRB05KT 9999 FEW020 SCT140 BKN280 33/24 Q1012


Station Type Date Time Source
WMKM Decoded METAR 2019/02/20 07:00 UTC NOAA

Malacca, Malaysia (WMKM) 02-16N 102-15E 9M
Feb 20, 2019 - 02:00 AM EST / 2019.02.20 0700 UTC
Wind: Variable at 6 MPH (5 KT):0
Visibility: greater than 7 mile(s):0
Sky conditions: mostly cloudy
Temperature: 91 F (33 C)
Heat index: 101.5 F (38.6 C):1
Dew Point: 75 F (24 C)
Relative Humidity: 59%
Pressure (altimeter): 29.88 in. Hg (1012 hPa)
ob: WMKM 200700Z VRB05KT 9999 FEW020 SCT140 BKN280 33/24 Q1012
cycle: 7

Station Type Date Time Source
WMKM TAF 2019/02/20 06:00 UTC NOAA

TAF WMKM 200500Z 2006/2106 05006KT 9999 FEW020
TEMPO 2007/2011 04010KT 3000 TSRA FEW016CB SCT020
BECMG 2014/2016 FEW028


Example: see airport list